CMA-CGM Fort Saint Pierre — FQFM — position and weather

sailwx.info

Track history (hours):
 
Tides and Currents Weather Stations Pressure Air Temp Water Temp Dewpoint Dewpoint Depression Visibility Wind Speed Wind Dir Waves Ship Positions

CMA-CGM Fort Saint Pierre

Last reported at 2017-Jan-16 14:31 UTC. Time now 2017-Jan-16 15:12 UTC.
Position N 53°32' E 009°55'.

Length 197 m; beam 30 m.

Type: Ship (hazmat cat A). MMSI: 226328000.

Date/timePositionNaut miles runAvg speedWind from/ knotsBaromVisibWave heightAir tempDewpointWater temp
2017-Jan-16 14:31N 53°32' E 009°55'0 0.0
2017-Jan-16 13:31N 53°32' E 009°55'0 0.0
2017-Jan-16 12:31N 53°32' E 009°54'0 0.0
2017-Jan-16 11:31N 53°32' E 009°54'0 0.0
2017-Jan-16 10:31N 53°32' E 009°55'0 0.0
2017-Jan-16 09:31N 53°32' E 009°54'0 0.0
2017-Jan-16 08:31N 53°32' E 009°55'0 0.0
2017-Jan-16 07:31N 53°32' E 009°54'0 0.0
2017-Jan-16 06:31N 53°32' E 009°54'0 0.0
2017-Jan-16 05:31N 53°32' E 009°54'0 0.0
2017-Jan-16 04:33N 53°32' E 009°54'7 7.3
2017-Jan-16 03:33N 53°34' E 009°43'1010.4
2017-Jan-16 02:34N 53°41' E 009°30'1615.5
2017-Jan-16 01:33N 53°53' E 009°13'1111.1
2017-Jan-16 00:33N 53°51' E 008°54'1414.1
2017-Jan-15 23:33N 53°58' E 008°34'1413.6
2017-Jan-15 22:33N 54°00' E 008°11'4 3.5
2017-Jan-15 21:33N 53°59' E 008°05'4 4.5
2017-Jan-15 20:33N 53°58' E 007°58'22 6.4
2017-Jan-15 17:04N 53°53' E 007°21'71 7.2
2017-Jan-15 07:07N 53°33' E 005°25'611.3
2017-Jan-15 06:34N 53°31' E 005°15'1111.0
2017-Jan-15 05:33N 53°28' E 004°57'1010.0
2017-Jan-15 04:33N 53°23' E 004°42'9 9.1
2017-Jan-15 03:33N 53°15' E 004°36'8 8.5
2017-Jan-15 02:34N 53°08' E 004°29'8 8.3
2017-Jan-15 01:33N 53°00' E 004°22'8 7.9
2017-Jan-15 00:33N 52°53' E 004°16'8 8.0
2017-Jan-14 23:33N 52°47' E 004°09'7 7.2
2017-Jan-14 22:33N 52°42' E 004°00'7 7.2
2017-Jan-14 21:33N 52°36' E 003°52'7 7.3
2017-Jan-14 20:33N 52°31' E 003°44'9 8.2
2017-Jan-14 19:25N 52°25' E 003°33'6511.1
2017-Jan-14 13:33N 51°51' E 002°02'1110.9
2017-Jan-14 12:33N 51°49' E 001°45'8 8.2
2017-Jan-14 11:33N 51°46' E 001°32'1514.2
2017-Jan-14 10:32N 51°35' E 001°17'1111.7
2017-Jan-14 09:33N 51°30' E 001°01'1515.0
2017-Jan-14 08:33N 51°30' E 000°37'5 4.7
2017-Jan-14 07:34N 51°30' E 000°29'0 0.0
2017-Jan-14 06:33N 51°30' E 000°29'0 0.0
2017-Jan-14 05:33N 51°30' E 000°29'0 0.0
2017-Jan-14 04:33N 51°30' E 000°29'0 0.0
2017-Jan-14 03:33N 51°30' E 000°29'4 0.9
2017-Jan-13 23:34N 51°30' E 000°35'1717.1
2017-Jan-13 22:33N 51°30' E 001°03'1616.1
2017-Jan-13 21:33N 51°28' E 001°29'3 3.0
2017-Jan-13 20:33N 51°29' E 001°33'1110.7
2017-Jan-13 19:34N 51°37' E 001°44'1211.7
2017-Jan-13 18:33N 51°48' E 001°49'1212.2
2017-Jan-13 17:34N 51°54' E 002°07'5112.3
2017-Jan-13 13:25N 52°03' E 003°28'1213.5
2017-Jan-13 12:33N 52°04' E 003°47'1010.1
2017-Jan-13 11:33N 51°60' E 004°02'10 9.8
2017-Jan-13 10:33N 51°55' E 004°15'7 6.8
2017-Jan-13 09:32N 51°54' E 004°26'0 0.2
2017-Jan-13 08:32N 51°54' E 004°26'0 0.0
2017-Jan-13 07:31N 51°54' E 004°26'0 0.0
2017-Jan-13 06:31N 51°54' E 004°26'0 0.0
2017-Jan-13 05:31N 51°54' E 004°26'0 0.0
2017-Jan-13 04:32N 51°54' E 004°26'0 0.0
2017-Jan-13 03:32N 51°54' E 004°26'0 0.0
2017-Jan-13 02:32N 51°54' E 004°26'0 0.0
2017-Jan-13 01:32N 51°54' E 004°26'0 0.0
2017-Jan-13 00:31N 51°54' E 004°26'0 0.0
2017-Jan-12 23:32N 51°54' E 004°26'0 0.0
2017-Jan-12 22:31N 51°54' E 004°26'0 0.0
2017-Jan-12 21:32N 51°54' E 004°26'0 0.0
2017-Jan-12 20:32N 51°54' E 004°26'0 0.0
2017-Jan-12 19:32N 51°54' E 004°26'0 0.0
2017-Jan-12 18:32N 51°54' E 004°26'0 0.0
2017-Jan-12 17:32N 51°54' E 004°26'0 0.0
2017-Jan-12 16:32N 51°54' E 004°26'0 0.0
2017-Jan-12 15:32N 51°54' E 004°26'0 0.0
2017-Jan-12 14:34N 51°54' E 004°26'6 6.1
2017-Jan-12 13:34N 51°54' E 004°16'1312.6
2017-Jan-12 12:33N 52°00' E 003°58'9 8.8
2017-Jan-12 11:33N 51°59' E 003°44'5 4.6
2017-Jan-12 10:33N 51°58' E 003°37'3417.2
2017-Jan-12 08:33N 51°47' E 002°44'1817.7
2017-Jan-12 07:33N 51°35' E 002°23'1817.6
2017-Jan-12 06:33N 51°23' E 002°03'1817.5
2017-Jan-12 05:33N 51°09' E 001°44'1616.0
2017-Jan-12 04:33N 50°57' E 001°29'6610.9
2017-Jan-11 22:32N 50°20' E 000°04'1313.0
2017-Jan-11 21:33N 50°16' W 000°16'1414.1
2017-Jan-11 20:33N 50°13' W 000°37'1615.9
2017-Jan-11 19:33N 50°09' W 001°01'2121.0
2017-Jan-11 18:34N 50°04' W 001°33'2121.2
2017-Jan-11 17:34N 49°58' W 002°05'11018.1
2017-Jan-11 11:31N 49°43' W 004°53'1716.8
2017-Jan-11 10:31N 49°42' W 005°19'1616.4
2017-Jan-11 09:31N 49°39' W 005°44'1515.7
2017-Jan-11 08:33N 49°39' W 006°07'1313.4
2017-Jan-11 07:34N 49°38' W 006°28'1919.0
2017-Jan-11 06:33N 49°36' W 006°57'2019.5
2017-Jan-11 05:30N 49°33' W 007°28'  
Track history (hours):
 
Tides and Currents Weather Stations Pressure Air Temp Water Temp Dewpoint Dewpoint Depression Visibility Wind Speed Wind Dir Waves Ship Positions

CMA-CGM Fort Saint Pierre

Last reported at 2017-Jan-16 14:31 UTC. Time now 2017-Jan-16 15:12 UTC.
Position N 53°32' E 009°55'.

Length 197 m; beam 30 m.

Type: Ship (hazmat cat A). MMSI: 226328000.

Date/timePositionNaut miles runAvg speedWind from/ knotsBaromVisibWave heightAir tempDewpointWater temp
2017-Jan-16 14:31N 53°32' E 009°55'0 0.0
2017-Jan-16 13:31N 53°32' E 009°55'0 0.0
2017-Jan-16 12:31N 53°32' E 009°54'0 0.0
2017-Jan-16 11:31N 53°32' E 009°54'0 0.0
2017-Jan-16 10:31N 53°32' E 009°55'0 0.0
2017-Jan-16 09:31N 53°32' E 009°54'0 0.0
2017-Jan-16 08:31N 53°32' E 009°55'0 0.0
2017-Jan-16 07:31N 53°32' E 009°54'0 0.0
2017-Jan-16 06:31N 53°32' E 009°54'0 0.0
2017-Jan-16 05:31N 53°32' E 009°54'0 0.0
2017-Jan-16 04:33N 53°32' E 009°54'7 7.3
2017-Jan-16 03:33N 53°34' E 009°43'1010.4
2017-Jan-16 02:34N 53°41' E 009°30'1615.5
2017-Jan-16 01:33N 53°53' E 009°13'1111.1
2017-Jan-16 00:33N 53°51' E 008°54'1414.1
2017-Jan-15 23:33N 53°58' E 008°34'1413.6
2017-Jan-15 22:33N 54°00' E 008°11'4 3.5
2017-Jan-15 21:33N 53°59' E 008°05'4 4.5
2017-Jan-15 20:33N 53°58' E 007°58'22 6.4
2017-Jan-15 17:04N 53°53' E 007°21'71 7.2
2017-Jan-15 07:07N 53°33' E 005°25'611.3
2017-Jan-15 06:34N 53°31' E 005°15'1111.0
2017-Jan-15 05:33N 53°28' E 004°57'1010.0
2017-Jan-15 04:33N 53°23' E 004°42'9 9.1
2017-Jan-15 03:33N 53°15' E 004°36'8 8.5
2017-Jan-15 02:34N 53°08' E 004°29'8 8.3
2017-Jan-15 01:33N 53°00' E 004°22'8 7.9
2017-Jan-15 00:33N 52°53' E 004°16'8 8.0
2017-Jan-14 23:33N 52°47' E 004°09'7 7.2
2017-Jan-14 22:33N 52°42' E 004°00'7 7.2
2017-Jan-14 21:33N 52°36' E 003°52'7 7.3
2017-Jan-14 20:33N 52°31' E 003°44'9 8.2
2017-Jan-14 19:25N 52°25' E 003°33'6511.1
2017-Jan-14 13:33N 51°51' E 002°02'1110.9
2017-Jan-14 12:33N 51°49' E 001°45'8 8.2
2017-Jan-14 11:33N 51°46' E 001°32'1514.2
2017-Jan-14 10:32N 51°35' E 001°17'1111.7
2017-Jan-14 09:33N 51°30' E 001°01'1515.0
2017-Jan-14 08:33N 51°30' E 000°37'5 4.7
2017-Jan-14 07:34N 51°30' E 000°29'0 0.0
2017-Jan-14 06:33N 51°30' E 000°29'0 0.0
2017-Jan-14 05:33N 51°30' E 000°29'0 0.0
2017-Jan-14 04:33N 51°30' E 000°29'0 0.0
2017-Jan-14 03:33N 51°30' E 000°29'4 0.9
2017-Jan-13 23:34N 51°30' E 000°35'1717.1
2017-Jan-13 22:33N 51°30' E 001°03'1616.1
2017-Jan-13 21:33N 51°28' E 001°29'3 3.0
2017-Jan-13 20:33N 51°29' E 001°33'1110.7
2017-Jan-13 19:34N 51°37' E 001°44'1211.7
2017-Jan-13 18:33N 51°48' E 001°49'1212.2
2017-Jan-13 17:34N 51°54' E 002°07'5112.3
2017-Jan-13 13:25N 52°03' E 003°28'1213.5
2017-Jan-13 12:33N 52°04' E 003°47'1010.1
2017-Jan-13 11:33N 51°60' E 004°02'10 9.8
2017-Jan-13 10:33N 51°55' E 004°15'7 6.8
2017-Jan-13 09:32N 51°54' E 004°26'0 0.2
2017-Jan-13 08:32N 51°54' E 004°26'0 0.0
2017-Jan-13 07:31N 51°54' E 004°26'0 0.0
2017-Jan-13 06:31N 51°54' E 004°26'0 0.0
2017-Jan-13 05:31N 51°54' E 004°26'0 0.0
2017-Jan-13 04:32N 51°54' E 004°26'0 0.0
2017-Jan-13 03:32N 51°54' E 004°26'0 0.0
2017-Jan-13 02:32N 51°54' E 004°26'0 0.0
2017-Jan-13 01:32N 51°54' E 004°26'0 0.0
2017-Jan-13 00:31N 51°54' E 004°26'0 0.0
2017-Jan-12 23:32N 51°54' E 004°26'0 0.0
2017-Jan-12 22:31N 51°54' E 004°26'0 0.0
2017-Jan-12 21:32N 51°54' E 004°26'0 0.0
2017-Jan-12 20:32N 51°54' E 004°26'0 0.0
2017-Jan-12 19:32N 51°54' E 004°26'0 0.0
2017-Jan-12 18:32N 51°54' E 004°26'0 0.0
2017-Jan-12 17:32N 51°54' E 004°26'0 0.0
2017-Jan-12 16:32N 51°54' E 004°26'0 0.0
2017-Jan-12 15:32N 51°54' E 004°26'0 0.0
2017-Jan-12 14:34N 51°54' E 004°26'6 6.1
2017-Jan-12 13:34N 51°54' E 004°16'1312.6
2017-Jan-12 12:33N 52°00' E 003°58'9 8.8
2017-Jan-12 11:33N 51°59' E 003°44'5 4.6
2017-Jan-12 10:33N 51°58' E 003°37'3417.2
2017-Jan-12 08:33N 51°47' E 002°44'1817.7
2017-Jan-12 07:33N 51°35' E 002°23'1817.6
2017-Jan-12 06:33N 51°23' E 002°03'1817.5
2017-Jan-12 05:33N 51°09' E 001°44'1616.0
2017-Jan-12 04:33N 50°57' E 001°29'6610.9
2017-Jan-11 22:32N 50°20' E 000°04'1313.0
2017-Jan-11 21:33N 50°16' W 000°16'1414.1
2017-Jan-11 20:33N 50°13' W 000°37'1615.9
2017-Jan-11 19:33N 50°09' W 001°01'2121.0
2017-Jan-11 18:34N 50°04' W 001°33'2121.2
2017-Jan-11 17:34N 49°58' W 002°05'11018.1
2017-Jan-11 11:31N 49°43' W 004°53'1716.8
2017-Jan-11 10:31N 49°42' W 005°19'1616.4
2017-Jan-11 09:31N 49°39' W 005°44'1515.7
2017-Jan-11 08:33N 49°39' W 006°07'1313.4
2017-Jan-11 07:34N 49°38' W 006°28'1919.0
2017-Jan-11 06:33N 49°36' W 006°57'2019.5
2017-Jan-11 05:30N 49°33' W 007°28'  

Dump ship's entire track history